Time;durP1;ratioP1;P1;durP2;ratioP2;P2;SDS_P1;SDS_P2;PMS_P1;PMS_P2;Temp;Humidity;BMP_temperature;BMP_pressure;BME280_temperature;BME280_humidity;BME280_pressure;Samples;Min_cycle;Max_cycle;Signal;HPM_P1;HPM_P2
2023/12/03 00:01:00;;;;;;;7.10;5.28;;;;;;;-0.55;100.00;101101.03;6068010;23;20570;-73
2023/12/03 00:03:27;;;;;;;8.52;6.57;;;;;;;-0.87;100.00;101037.44;6060292;23;20037;-74
2023/12/03 00:05:54;;;;;;;13.68;7.53;;;;;;;-1.01;100.00;101014.25;6058343;23;20026;-74
2023/12/03 00:08:21;;;;;;;9.15;3.90;;;;;;;-0.84;100.00;101043.47;6037761;23;20041;-76
2023/12/03 00:10:47;;;;;;;7.35;5.28;;;;;;;-0.63;100.00;101095.88;6061788;23;20503;-76
2023/12/03 00:13:13;;;;;;;4.57;4.28;;;;;;;-1.01;100.00;101025.41;6063753;23;20034;-75
2023/12/03 00:15:40;;;;;;;8.75;5.60;;;;;;;-0.66;100.00;101107.03;6060826;23;20014;-74
2023/12/03 00:18:06;;;;;;;5.32;4.47;;;;;;;-0.90;100.00;101065.78;6065192;23;20058;-75
2023/12/03 00:20:33;;;;;;;7.43;5.20;;;;;;;-0.80;100.00;101075.25;6060354;23;20045;-74
2023/12/03 00:23:00;;;;;;;6.07;4.90;;;;;;;-1.04;100.00;101052.91;6061801;23;20776;-74
2023/12/03 00:25:26;;;;;;;5.55;5.10;;;;;;;-0.40;100.00;101162.91;6058826;23;20504;-74
2023/12/03 00:27:53;;;;;;;6.25;5.75;;;;;;;-1.59;100.00;100978.13;6059425;23;20034;-74
2023/12/03 00:30:20;;;;;;;10.85;5.15;;;;;;;-0.99;100.00;101079.50;6053187;23;20018;-74
2023/12/03 00:32:46;;;;;;;8.02;5.40;;;;;;;-0.62;100.00;101138.84;6060253;23;20606;-74
2023/12/03 00:35:14;;;;;;;6.57;4.60;;;;;;;-0.54;100.00;101168.06;6070670;23;20034;-75
2023/12/03 00:37:40;;;;;;;5.35;4.85;;;;;;;-0.94;100.00;101108.72;6049743;23;20030;-75
2023/12/03 00:40:08;;;;;;;5.25;4.78;;;;;;;-0.32;100.00;101199.00;6038339;23;20033;-75
2023/12/03 00:42:34;;;;;;;8.43;4.05;;;;;;;-0.82;100.00;101108.75;6058630;23;20077;-73
2023/12/03 00:45:01;;;;;;;14.90;7.05;;;;;;;-1.09;100.00;101073.47;6066315;23;20030;-75
2023/12/03 00:47:27;;;;;;;9.43;7.38;;;;;;;-0.61;100.00;101159.44;6054036;23;20045;-75
2023/12/03 00:49:54;;;;;;;4.65;4.40;;;;;;;-0.20;100.00;101206.75;6065031;23;20080;-75
2023/12/03 00:52:20;;;;;;;11.90;5.72;;;;;;;-1.46;100.00;100995.31;6056010;23;20018;-74
2023/12/03 00:54:47;;;;;;;5.93;5.35;;;;;;;-0.59;100.00;101150.88;6066441;23;20026;-75
2023/12/03 00:57:13;;;;;;;7.88;7.13;;;;;;;-2.05;100.00;100995.13;6056921;23;20708;-75
2023/12/03 00:59:40;;;;;;;9.80;7.10;;;;;;;-0.56;100.00;101163.72;6059539;23;20020;-74
2023/12/03 01:02:06;;;;;;;7.10;6.32;;;;;;;-1.45;100.00;100999.59;6056286;23;20029;-74
2023/12/03 01:04:33;;;;;;;4.88;4.47;;;;;;;-0.83;100.00;101101.00;6068593;23;20050;-75
2023/12/03 01:06:59;;;;;;;7.45;6.18;;;;;;;-0.81;100.00;101091.56;6058790;23;20121;-74
2023/12/03 01:09:30;;;;;;;5.45;5.05;;;;;;;-0.38;100.00;101183.50;6061908;23;20047;-75
2023/12/03 01:11:57;;;;;;;4.28;4.03;;;;;;;-0.83;100.00;101119.03;6055814;23;20034;-74
2023/12/03 01:14:24;;;;;;;6.38;5.88;;;;;;;-1.03;100.00;101075.22;6057355;23;20042;-74
2023/12/03 01:16:51;;;;;;;8.48;5.65;;;;;;;-0.18;100.00;101207.63;6067519;23;20041;-74
2023/12/03 01:19:17;;;;;;;4.78;4.38;;;;;;;-0.51;100.00;101155.16;6033257;23;20029;-74
2023/12/03 01:21:44;;;;;;;4.88;4.57;;;;;;;-0.42;100.00;101172.38;6054444;23;20060;-74
2023/12/03 01:24:11;;;;;;;6.40;5.88;;;;;;;-0.18;100.00;101215.38;6027586;23;20303;-74
2023/12/03 01:26:37;;;;;;;5.65;5.22;;;;;;;-1.10;100.00;101053.75;6062955;23;20459;-74
2023/12/03 01:29:04;;;;;;;6.53;5.90;;;;;;;-0.88;100.00;101093.28;6056731;23;20046;-74
2023/12/03 01:31:31;;;;;;;6.47;5.65;;;;;;;-0.49;100.00;101174.06;6046851;23;20148;-74
2023/12/03 01:33:57;;;;;;;5.13;4.43;;;;;;;-0.55;100.00;101168.91;6062407;23;20493;-74
2023/12/03 01:36:24;;;;;;;7.07;5.68;;;;;;;-0.69;100.00;101144.84;6065778;23;20026;-75
2023/12/03 01:38:51;;;;;;;6.38;5.80;;;;;;;-0.42;100.00;101196.44;6054937;23;22146;-74
2023/12/03 01:41:17;;;;;;;5.65;5.15;;;;;;;-0.32;100.00;101199.00;6054162;23;20052;-74
2023/12/03 01:43:51;;;;;;;4.18;3.88;;;;;;;-1.34;100.00;101030.50;6066698;23;20053;-75
2023/12/03 01:46:22;;;;;;;6.82;5.35;;;;;;;-0.56;100.00;101149.16;6061014;23;20012;-75
2023/12/03 01:48:50;;;;;;;5.35;4.85;;;;;;;-0.49;100.00;101170.63;6065720;23;20046;-74
2023/12/03 01:51:17;;;;;;;5.80;5.30;;;;;;;-1.18;100.00;101062.28;6053977;23;20029;-75
2023/12/03 01:53:43;;;;;;;7.15;4.43;;;;;;;0.01;100.00;101233.41;6058178;23;20038;-74
2023/12/03 01:56:10;;;;;;;4.72;4.03;;;;;;;-0.33;100.00;101197.28;6043466;23;20022;-74
2023/12/03 01:58:37;;;;;;;7.60;4.40;;;;;;;-0.50;100.00;101169.78;6062092;23;20049;-75
2023/12/03 02:01:05;;;;;;;5.25;4.85;;;;;;;-0.19;100.00;101212.78;6056316;23;20053;-74
2023/12/03 02:03:32;;;;;;;6.43;5.57;;;;;;;-0.69;100.00;101137.94;6075720;23;20024;-75
2023/12/03 02:06:09;;;;;;;4.20;3.90;;;;;;;0.00;100.00;101245.47;6055873;23;20489;-74
2023/12/03 02:08:37;;;;;;;3.88;3.55;;;;;;;-0.65;100.00;101139.66;6060010;23;20033;-74
2023/12/03 02:11:06;;;;;;;3.42;3.22;;;;;;;-0.33;100.00;101174.94;6063105;23;20425;-75
2023/12/03 02:13:36;;;;;;;6.35;5.88;;;;;;;0.04;100.00;101234.28;6064035;23;20087;-74
2023/12/03 02:16:03;;;;;;;12.10;5.78;;;;;;;-0.65;100.00;101152.56;6038115;23;20585;-74
2023/12/03 02:18:32;;;;;;;5.03;4.70;;;;;;;0.02;100.00;101211.91;6068792;23;20026;-75
2023/12/03 02:20:59;;;;;;;4.75;4.45;;;;;;;-0.03;100.00;101206.75;6060467;23;20077;-74
2023/12/03 02:23:29;;;;;;;5.57;5.18;;;;;;;-0.06;100.00;101209.31;6064904;23;20042;-74
2023/12/03 02:25:56;;;;;;;5.53;5.10;;;;;;;-0.06;100.00;101211.91;6061720;23;20121;-74
2023/12/03 02:28:23;;;;;;;4.65;3.95;;;;;;;-0.29;100.00;101186.97;6068261;23;20030;-74
2023/12/03 02:30:50;;;;;;;4.43;4.13;;;;;;;-0.43;100.00;101173.22;6058320;23;20034;-74
2023/12/03 02:33:16;;;;;;;5.82;5.32;;;;;;;-0.05;100.00;101229.13;6062313;23;20466;-75
2023/12/03 02:35:43;;;;;;;4.35;4.05;;;;;;;-1.43;100.00;101001.31;6068621;23;20073;-74
2023/12/03 02:38:09;;;;;;;6.18;4.47;;;;;;;-0.10;100.00;101223.97;6039569;23;20089;-75
2023/12/03 02:40:37;;;;;;;7.18;4.75;;;;;;;-2.01;100.00;100921.41;6072712;23;20117;-75
2023/12/03 02:43:04;;;;;;;3.95;3.67;;;;;;;-0.22;100.00;101211.91;6055718;23;20585;-75
2023/12/03 02:45:30;;;;;;;7.65;6.78;;;;;;;-0.47;100.00;101174.91;6062290;23;20056;-74
2023/12/03 02:47:57;;;;;;;7.28;6.10;;;;;;;-2.57;100.00;100822.69;6061974;23;20053;-72
2023/12/03 02:50:24;;;;;;;10.60;4.78;;;;;;;-0.76;100.00;101174.00;6068698;23;20026;-73
2023/12/03 02:52:50;;;;;;;4.72;4.40;;;;;;;-1.07;100.00;101104.41;6061308;23;20042;-73
2023/12/03 02:55:16;;;;;;;4.13;3.83;;;;;;;-2.01;100.00;100963.41;6062259;23;20522;-72
2023/12/03 02:57:43;;;;;;;5.72;3.88;;;;;;;-0.73;100.00;101203.22;6063662;23;20101;-73
2023/12/03 03:00:10;;;;;;;3.60;3.40;;;;;;;-0.53;100.00;101239.38;6035144;23;20037;-72
2023/12/03 03:02:38;;;;;;;4.20;3.95;;;;;;;-0.51;100.00;101250.53;6064084;23;20022;-73
2023/12/03 03:05:05;;;;;;;3.90;3.70;;;;;;;-0.52;100.00;101258.25;6069154;23;20059;-73
2023/12/03 03:07:32;;;;;;;7.35;6.65;;;;;;;-0.66;100.00;101243.66;6056879;23;20651;-72
2023/12/03 03:09:58;;;;;;;6.05;5.50;;;;;;;-0.52;100.00;101274.63;6066534;23;20054;-73
2023/12/03 03:12:25;;;;;;;3.72;3.53;;;;;;;-1.02;100.00;101210.91;6058774;23;20034;-73
2023/12/03 03:14:51;;;;;;;5.10;4.45;;;;;;;-0.55;100.00;101279.75;6061522;23;20026;-73
2023/12/03 03:17:18;;;;;;;4.50;4.07;;;;;;;-0.51;100.00;101302.09;6038824;23;20090;-72
2023/12/03 03:19:44;;;;;;;9.85;5.95;;;;;;;-0.84;100.00;101254.75;6060468;23;20106;-72
2023/12/03 03:22:12;;;;;;;4.40;4.00;;;;;;;-1.27;100.00;101174.72;6058660;23;20086;-72
2023/12/03 03:24:40;;;;;;;6.88;4.85;;;;;;;-1.23;100.00;101175.59;6061540;23;20126;-73
2023/12/03 03:27:07;;;;;;;3.75;3.55;;;;;;;-0.89;100.00;101235.81;6062166;23;20014;-73
2023/12/03 03:29:35;;;;;;;5.88;5.47;;;;;;;-0.76;100.00;101248.75;6064803;23;20041;-72
2023/12/03 03:32:01;;;;;;;4.03;3.83;;;;;;;-0.64;100.00;101269.44;6051191;23;20460;-73
2023/12/03 03:34:28;;;;;;;5.22;4.82;;;;;;;-0.38;100.00;101318.50;6059624;23;20559;-73
2023/12/03 03:36:55;;;;;;;4.05;3.83;;;;;;;-1.06;100.00;101202.28;6066154;23;20026;-72
2023/12/03 03:39:21;;;;;;;5.22;4.82;;;;;;;-1.61;100.00;101140.25;6053109;23;20422;-73
2023/12/03 03:41:48;;;;;;;4.93;3.85;;;;;;;-0.35;100.00;101309.91;6068962;23;20145;-73
2023/12/03 03:44:14;;;;;;;4.22;3.92;;;;;;;-1.43;100.00;101132.59;6055354;23;20038;-74
2023/12/03 03:46:41;;;;;;;4.95;3.80;;;;;;;-0.70;100.00;101244.50;6046531;23;20099;-74
2023/12/03 03:49:08;;;;;;;3.10;2.97;;;;;;;-0.32;100.00;101302.16;6029858;23;20030;-74
2023/12/03 03:51:34;;;;;;;4.88;4.60;;;;;;;-1.13;100.00;101168.78;6061346;23;20503;-74
2023/12/03 03:54:01;;;;;;;4.05;3.75;;;;;;;-1.02;100.00;101178.25;6057305;23;20515;-74
2023/12/03 03:56:28;;;;;;;5.13;4.05;;;;;;;-1.36;100.00;101124.91;6031101;23;20073;-74
2023/12/03 03:58:54;;;;;;;5.80;4.50;;;;;;;-1.43;100.00;101119.72;6060203;23;20033;-74
2023/12/03 04:01:21;;;;;;;4.20;4.00;;;;;;;-0.65;100.00;101253.09;6057135;23;20079;-75
2023/12/03 04:03:47;;;;;;;3.63;3.38;;;;;;;-0.93;100.00;101204.91;6061102;23;20077;-75
2023/12/03 04:06:14;;;;;;;4.35;4.10;;;;;;;-0.22;100.00;101309.94;6043204;23;20398;-74
2023/12/03 04:08:41;;;;;;;4.57;4.18;;;;;;;-1.12;100.00;101152.44;6061748;23;20367;-74
2023/12/03 04:11:07;;;;;;;4.60;4.25;;;;;;;-0.62;100.00;101247.94;6069967;23;20030;-74
2023/12/03 04:13:36;;;;;;;6.60;5.97;;;;;;;-0.24;100.00;101292.72;6059646;23;20045;-74
2023/12/03 04:16:02;;;;;;;6.03;5.05;;;;;;;-0.56;100.00;101257.41;6037275;23;20090;-75
2023/12/03 04:18:29;;;;;;;4.20;3.90;;;;;;;-0.23;100.00;101299.59;6056844;23;20477;-73
2023/12/03 04:20:55;;;;;;;8.00;3.80;;;;;;;-0.91;100.00;101180.84;6067172;23;20488;-75
2023/12/03 04:23:22;;;;;;;5.32;4.93;;;;;;;-1.13;100.00;101145.59;6060653;23;20050;-75
2023/12/03 04:25:48;;;;;;;4.93;4.53;;;;;;;-1.32;100.00;101132.66;6056098;23;20015;-74
2023/12/03 04:28:15;;;;;;;4.50;4.10;;;;;;;-0.99;100.00;101173.97;6040252;23;20277;-75
2023/12/03 04:30:44;;;;;;;4.78;4.47;;;;;;;-0.51;100.00;101255.69;6066966;23;20085;-74
2023/12/03 04:33:10;;;;;;;7.15;4.63;;;;;;;-0.36;100.00;101267.78;6059487;23;20096;-74
2023/12/03 04:35:37;;;;;;;5.65;5.25;;;;;;;-0.28;100.00;101293.56;6062575;23;20046;-75
2023/12/03 04:38:04;;;;;;;3.30;3.20;;;;;;;-0.67;100.00;101223.00;6075314;23;20022;-74
2023/12/03 04:40:31;;;;;;;3.70;3.50;;;;;;;-0.22;100.00;101293.56;6039262;23;20768;-75
2023/12/03 04:42:57;;;;;;;3.65;3.47;;;;;;;-1.13;100.00;101150.75;6060637;23;20026;-75
2023/12/03 04:45:24;;;;;;;4.75;4.47;;;;;;;-0.26;100.00;101281.53;6037679;23;20030;-74
2023/12/03 04:47:50;;;;;;;4.38;4.15;;;;;;;-0.94;100.00;101162.81;6031491;23;20108;-74
2023/12/03 04:50:17;;;;;;;3.72;3.47;;;;;;;-0.17;100.00;101304.78;6071630;23;20021;-74
2023/12/03 04:52:44;;;;;;;3.60;3.40;;;;;;;-0.39;100.00;101256.59;6057733;23;20010;-75
2023/12/03 04:55:10;;;;;;;5.40;4.55;;;;;;;-1.30;100.00;101106.94;6064291;23;20051;-75
2023/12/03 04:57:36;;;;;;;5.82;5.45;;;;;;;-0.23;100.00;101291.88;6058818;23;20021;-74
2023/12/03 05:00:04;;;;;;;4.15;3.78;;;;;;;-0.18;100.00;101294.44;6064164;23;20022;-75
2023/12/03 05:02:30;;;;;;;4.25;3.95;;;;;;;-0.21;100.00;101292.72;6038373;23;20028;-74
2023/12/03 05:04:56;;;;;;;28.48;3.50;;;;;;;-0.22;100.00;101288.41;6071145;23;20045;-74
2023/12/03 05:07:23;;;;;;;4.10;3.80;;;;;;;-0.36;100.00;101264.31;6050293;23;20020;-75
2023/12/03 05:09:50;;;;;;;3.70;3.50;;;;;;;-0.24;100.00;101291.00;6065333;23;20025;-74
2023/12/03 05:12:16;;;;;;;3.10;3.00;;;;;;;-0.48;100.00;101247.09;6047446;23;20081;-74
2023/12/03 05:14:43;;;;;;;9.52;4.25;;;;;;;-0.89;100.00;101184.28;6038167;23;20026;-75
2023/12/03 05:17:09;;;;;;;4.78;3.45;;;;;;;-0.48;100.00;101262.56;6060093;23;20081;-74
2023/12/03 05:19:36;;;;;;;5.22;4.88;;;;;;;-0.73;100.00;101233.31;6060855;23;20029;-74
2023/12/03 05:22:03;;;;;;;4.20;3.90;;;;;;;-0.70;100.00;101230.72;6030956;23;20088;-74
2023/12/03 05:24:29;;;;;;;3.95;3.67;;;;;;;-0.54;100.00;101267.72;6052945;23;20648;-75
2023/12/03 05:26:56;;;;;;;3.97;3.72;;;;;;;-0.61;100.00;101277.16;6066482;23;20111;-74
2023/12/03 05:29:22;;;;;;;7.78;4.88;;;;;;;-1.03;100.00;101229.75;6061801;23;20030;-75
2023/12/03 05:31:49;;;;;;;4.10;3.85;;;;;;;-0.66;100.00;101307.19;6056808;23;20089;-74
2023/12/03 05:34:15;;;;;;;3.92;3.63;;;;;;;-0.95;100.00;101264.16;6072496;23;20054;-74
2023/12/03 05:36:44;;;;;;;4.47;3.42;;;;;;;-0.99;100.00;101288.16;6025890;23;20097;-74
2023/12/03 05:39:11;;;;;;;3.25;3.13;;;;;;;-0.66;100.00;101335.56;6066779;23;20021;-74
2023/12/03 05:41:39;;;;;;;4.75;4.55;;;;;;;-1.17;100.00;101259.75;6050171;23;20194;-74
2023/12/03 05:44:05;;;;;;;3.88;3.67;;;;;;;-1.02;100.00;101281.28;6035524;23;20026;-75
2023/12/03 05:46:31;;;;;;;3.15;3.05;;;;;;;-1.32;100.00;101248.53;6066992;23;20025;-74
2023/12/03 05:48:58;;;;;;;5.55;5.15;;;;;;;-2.37;100.00;101104.63;6055340;23;20026;-74
2023/12/03 05:51:25;;;;;;;4.60;4.35;;;;;;;-1.04;100.00;101313.06;6067722;23;20018;-74
2023/12/03 05:53:51;;;;;;;4.32;4.05;;;;;;;-1.98;100.00;101181.19;6032729;23;20786;-74
2023/12/03 05:56:18;;;;;;;6.00;3.78;;;;;;;-1.43;100.00;101294.78;6064618;23;20086;-74
2023/12/03 05:58:47;;;;;;;3.95;3.65;;;;;;;-1.39;100.00;101315.41;6059125;23;20010;-75
2023/12/03 06:01:24;;;;;;;5.15;3.22;;;;;;;-2.67;100.00;101124.94;6066352;23;20023;-75
2023/12/03 06:03:51;;;;;;;4.03;3.72;;;;;;;-2.12;100.00;101270.25;6060835;23;20026;-74
2023/12/03 06:06:18;;;;;;;10.25;4.07;;;;;;;-2.08;100.00;101260.00;6048436;23;20088;-74
2023/12/03 06:08:45;;;;;;;3.15;3.05;;;;;;;-2.44;100.00;101227.09;6064801;23;20026;-74
2023/12/03 06:11:11;;;;;;;3.60;3.42;;;;;;;-1.95;100.00;101326.97;6057369;23;20018;-74
2023/12/03 06:13:38;;;;;;;5.18;4.88;;;;;;;-1.95;100.00;101334.69;6059294;23;20093;-74
2023/12/03 06:16:04;;;;;;;4.60;3.83;;;;;;;-1.91;100.00;101352.72;6064523;23;20049;-74
2023/12/03 06:18:31;;;;;;;3.45;3.25;;;;;;;-2.77;100.00;101217.31;6066435;23;20017;-74
2023/12/03 06:20:58;;;;;;;3.67;3.47;;;;;;;-2.22;100.00;101321.56;6062581;23;20022;-74
2023/12/03 06:23:24;;;;;;;3.88;3.60;;;;;;;-1.79;100.00;101420.59;6066556;23;20081;-73
2023/12/03 06:25:51;;;;;;;3.70;3.47;;;;;;;-3.00;100.00;101212.78;6052120;23;20050;-73
2023/12/03 06:28:18;;;;;;;3.78;3.58;;;;;;;-2.47;100.00;101299.00;6054349;23;20093;-74
2023/12/03 06:30:44;;;;;;;3.40;3.20;;;;;;;-3.44;100.00;101157.50;6063727;23;20020;-74
2023/12/03 06:33:11;;;;;;;3.53;3.33;;;;;;;-2.04;100.00;101385.19;6059800;23;20029;-74
2023/12/03 06:35:38;;;;;;;4.85;4.65;;;;;;;-2.29;100.00;101367.75;6035688;23;20035;-75
2023/12/03 06:38:04;;;;;;;4.20;3.90;;;;;;;-2.88;100.00;101254.03;6058747;23;20026;-75
2023/12/03 06:40:31;;;;;;;5.13;4.20;;;;;;;-1.93;100.00;101415.28;6061868;23;20029;-73
2023/12/03 06:42:57;;;;;;;4.05;3.72;;;;;;;-2.39;100.00;101359.06;6054528;23;20586;-74
2023/12/03 06:45:24;;;;;;;3.88;3.70;;;;;;;-1.98;100.00;101422.09;6039105;23;20018;-73
2023/12/03 06:47:51;;;;;;;4.90;4.47;;;;;;;-2.55;100.00;101322.03;6063288;23;20103;-74
2023/12/03 06:50:17;;;;;;;3.08;2.97;;;;;;;-2.44;100.00;101353.03;6059994;23;20077;-74
2023/12/03 06:52:44;;;;;;;6.53;4.43;;;;;;;-2.05;100.00;101401.44;6066381;23;20022;-74
2023/12/03 06:55:12;;;;;;;3.58;3.38;;;;;;;-1.91;100.00;101427.31;6039918;23;20034;-75
2023/12/03 06:57:38;;;;;;;6.80;5.63;;;;;;;-1.94;100.00;101375.00;6061660;23;20514;-74
2023/12/03 07:00:09;;;;;;;4.20;3.67;;;;;;;-2.21;100.00;101341.28;6062833;23;20025;-74
2023/12/03 07:02:36;;;;;;;2.70;2.60;;;;;;;-2.11;100.00;101324.22;6062853;23;20026;-73
2023/12/03 07:05:04;;;;;;;3.65;3.45;;;;;;;-2.85;100.00;101184.69;6065401;23;20355;-73
2023/12/03 07:07:31;;;;;;;5.28;4.97;;;;;;;-1.58;100.00;101384.78;6024963;23;20014;-73
2023/12/03 07:09:57;;;;;;;4.35;4.05;;;;;;;-3.30;100.00;101096.09;6075794;23;20018;-73
2023/12/03 07:12:24;;;;;;;3.00;2.90;;;;;;;-3.19;100.00;101113.31;6061036;23;20487;-73
2023/12/03 07:14:50;;;;;;;4.45;4.15;;;;;;;-1.62;100.00;101377.88;6072378;23;20054;-73
2023/12/03 07:17:16;;;;;;;3.50;3.35;;;;;;;-1.75;100.00;101351.16;6060452;23;20021;-73
2023/12/03 07:19:44;;;;;;;3.90;3.60;;;;;;;-1.91;100.00;101319.28;6060252;23;20100;-72
2023/12/03 07:22:11;;;;;;;3.50;3.30;;;;;;;-1.24;100.00;101406.50;5935605;23;20097;-74
2023/12/03 07:24:39;;;;;;;2.70;2.60;;;;;;;-1.30;100.00;101379.84;6062215;23;20006;-73
2023/12/03 07:27:06;;;;;;;2.72;2.63;;;;;;;-1.35;100.00;101360.91;6039692;23;20022;-73
2023/12/03 07:29:32;;;;;;;4.57;4.38;;;;;;;-1.44;100.00;101326.53;6057007;23;20010;-73
2023/12/03 07:31:59;;;;;;;4.18;3.88;;;;;;;-1.44;100.00;101311.09;6064659;23;20037;-73
2023/12/03 07:34:26;;;;;;;3.58;3.30;;;;;;;-1.97;100.00;101211.19;6063427;23;20527;-73
2023/12/03 07:36:53;;;;;;;3.75;3.45;;;;;;;-1.90;100.00;101181.25;6038678;23;20022;-73
2023/12/03 07:39:20;;;;;;;6.97;5.38;;;;;;;-1.54;100.00;101238.94;6069288;23;20704;-74
2023/12/03 07:41:50;;;;;;;3.65;3.45;;;;;;;-1.23;100.00;101276.03;6061042;23;20046;-73
2023/12/03 07:44:17;;;;;;;3.38;3.17;;;;;;;-1.30;100.00;101256.25;6062593;23;20053;-71
2023/12/03 07:46:43;;;;;;;4.18;3.08;;;;;;;-1.53;100.00;101235.53;6069099;23;20022;-73
2023/12/03 07:49:10;;;;;;;7.43;4.47;;;;;;;-1.38;100.00;101256.22;6060547;23;20022;-73
2023/12/03 07:51:36;;;;;;;5.28;4.97;;;;;;;-1.37;100.00;101270.78;6066970;23;20048;-74
2023/12/03 07:54:03;;;;;;;5.15;4.47;;;;;;;-1.57;100.00;101228.63;6058135;23;20071;-73
2023/12/03 07:56:36;;;;;;;2.92;2.83;;;;;;;-1.69;100.00;101247.41;6065019;23;20500;-73
2023/12/03 07:59:03;;;;;;;3.25;3.05;;;;;;;-1.71;100.00;101228.53;6060094;23;20595;-73
2023/12/03 08:01:30;;;;;;;5.05;4.82;;;;;;;-2.03;100.00;101188.84;6064561;23;20095;-73
2023/12/03 08:03:57;;;;;;;4.03;3.72;;;;;;;-1.48;100.00;101293.91;6029880;23;20666;-73
2023/12/03 08:06:25;;;;;;;3.00;2.90;;;;;;;-2.13;100.00;101194.78;6057484;23;20115;-73
2023/12/03 08:08:53;;;;;;;4.18;3.80;;;;;;;-1.81;100.00;101248.19;6059995;23;20497;-73
2023/12/03 08:11:20;;;;;;;6.60;4.47;;;;;;;-1.39;100.00;101312.84;6066399;23;20040;-71
2023/12/03 08:13:47;;;;;;;5.45;4.72;;;;;;;-2.24;100.00;101170.72;6059878;23;20084;-71
2023/12/03 08:16:13;;;;;;;6.68;3.83;;;;;;;-1.55;100.00;101270.69;6062454;23;20139;-71
2023/12/03 08:18:40;;;;;;;3.63;3.42;;;;;;;-1.65;100.00;101255.16;6054550;23;20444;-71
2023/12/03 08:21:07;;;;;;;4.45;4.07;;;;;;;-1.79;100.00;101225.91;6064813;23;20119;-71
2023/12/03 08:23:34;;;;;;;6.15;5.72;;;;;;;-1.59;100.00;101259.50;6058372;23;20034;-73
2023/12/03 08:26:04;;;;;;;3.88;3.65;;;;;;;-1.45;100.00;101277.59;6063436;23;20072;-74
2023/12/03 08:28:30;;;;;;;3.63;3.42;;;;;;;-1.16;100.00;101308.69;6059635;23;20484;-73
2023/12/03 08:30:58;;;;;;;3.83;3.55;;;;;;;-0.81;100.00;101350.09;6060221;23;20271;-74
2023/12/03 08:33:24;;;;;;;5.18;4.80;;;;;;;-1.10;100.00;101282.97;6060651;23;20468;-73
2023/12/03 08:35:51;;;;;;;4.95;3.35;;;;;;;-0.91;100.00;101281.34;6068828;23;20484;-73
2023/12/03 08:38:17;;;;;;;5.55;5.10;;;;;;;-1.18;100.00;101222.84;6064352;23;20041;-73
2023/12/03 08:40:44;;;;;;;8.55;4.45;;;;;;;-0.66;100.00;101276.25;6070171;23;20021;-73
2023/12/03 08:43:10;;;;;;;4.97;4.57;;;;;;;-0.44;100.00;101288.38;6053180;23;20025;-73
2023/12/03 08:45:36;;;;;;;5.32;4.85;;;;;;;-0.54;100.00;101253.13;6068868;23;20511;-74
2023/12/03 08:48:03;;;;;;;3.92;3.50;;;;;;;-1.87;100.00;100996.06;6058064;23;20038;-75
2023/12/03 08:50:31;;;;;;;5.35;4.95;;;;;;;-0.36;100.00;101217.91;6064030;23;20614;-74
2023/12/03 08:52:58;;;;;;;4.05;3.17;;;;;;;-0.37;100.00;101191.25;6061424;23;20151;-74
2023/12/03 08:55:25;;;;;;;6.53;5.95;;;;;;;-0.95;100.00;101088.09;6032428;23;20100;-74
2023/12/03 08:57:51;;;;;;;3.65;3.35;;;;;;;-0.34;100.00;101177.50;6062906;23;20040;-73
2023/12/03 09:00:18;;;;;;;5.90;4.57;;;;;;;-0.35;100.00;101170.63;6062613;23;20033;-73
2023/12/03 09:02:45;;;;;;;5.05;4.03;;;;;;;-0.98;100.00;101063.22;6061423;23;20030;-72
2023/12/03 09:05:12;;;;;;;4.22;3.85;;;;;;;-0.90;100.00;101081.22;6066591;23;20355;-72
2023/12/03 09:07:39;;;;;;;5.70;4.68;;;;;;;-0.75;100.00;101077.81;6050903;23;20880;-72
2023/12/03 09:10:07;;;;;;;4.10;3.90;;;;;;;-0.67;100.00;101094.16;6065548;23;20417;-73
2023/12/03 09:12:33;;;;;;;4.78;4.43;;;;;;;-0.42;100.00;101115.63;6046115;23;20006;-72
2023/12/03 09:15:00;;;;;;;6.85;3.83;;;;;;;-0.41;100.00;101107.88;6059350;23;20034;-73
2023/12/03 09:17:27;;;;;;;27.27;5.93;;;;;;;-0.76;100.00;101053.78;6067674;23;20028;-72
2023/12/03 09:19:54;;;;;;;5.88;4.75;;;;;;;-0.32;100.00;101103.56;6035627;23;20038;-72
2023/12/03 09:22:20;;;;;;;4.22;3.92;;;;;;;-0.06;100.00;101132.81;6063696;23;20025;-72
2023/12/03 09:24:47;;;;;;;6.63;5.22;;;;;;;-0.02;100.00;101121.63;6054815;23;20022;-73
2023/12/03 09:27:14;;;;;;;4.72;3.40;;;;;;;-0.69;100.00;100997.94;6061732;23;20496;-73
2023/12/03 09:29:40;;;;;;;5.97;5.57;;;;;;;-0.86;100.00;100965.31;6043252;23;20512;-73
2023/12/03 09:32:06;;;;;;;3.28;3.08;;;;;;;0.14;100.00;101081.16;6050466;23;20311;-72
2023/12/03 09:34:33;;;;;;;4.30;4.00;;;;;;;-0.50;100.00;100957.50;6067186;23;20069;-73
2023/12/03 09:37:01;;;;;;;4.20;3.83;;;;;;;-0.18;100.00;100997.81;6063964;23;20104;-73
2023/12/03 09:39:28;;;;;;;5.53;5.10;;;;;;;0.25;100.00;101046.69;6059105;23;20025;-73
2023/12/03 09:41:59;;;;;;;2.80;2.70;;;;;;;0.45;100.00;101055.19;6053574;23;20183;-73
2023/12/03 09:44:33;;;;;;;3.70;3.40;;;;;;;-0.56;100.00;100864.72;6057053;23;20038;-73
2023/12/03 09:47:02;;;;;;;7.85;4.35;;;;;;;0.62;100.00;101007.75;6038780;23;20030;-73
2023/12/03 09:49:29;;;;;;;4.57;4.38;;;;;;;0.56;100.00;100954.41;6055852;23;20043;-73
2023/12/03 09:52:02;;;;;;;5.85;4.40;;;;;;;-0.25;100.00;100816.44;6063012;23;20092;-73
2023/12/03 09:54:32;;;;;;;3.28;2.97;;;;;;;0.32;100.00;100915.03;6025193;23;20022;-73
2023/12/03 09:56:59;;;;;;;5.03;4.40;;;;;;;-0.49;100.00;100758.16;6056663;23;20130;-73
2023/12/03 09:59:27;;;;;;;7.90;5.78;;;;;;;0.44;100.00;100924.41;6030003;23;20237;-73
2023/12/03 10:01:55;;;;;;;2.85;2.75;;;;;;;-0.17;100.00;100835.31;6034953;23;20022;-73
2023/12/03 10:04:21;;;;;;;3.65;3.42;;;;;;;-0.13;100.00;100833.59;6059333;23;20598;-73
2023/12/03 10:06:51;;;;;;;3.80;3.60;;;;;;;-0.62;100.00;100749.63;6049840;23;20045;-73
2023/12/03 10:09:19;;;;;;;5.18;4.30;;;;;;;0.62;100.00;100950.94;6066130;23;20447;-73
2023/12/03 10:11:54;;;;;;;3.63;3.42;;;;;;;0.34;100.00;100887.47;6053588;23;20030;-73
2023/12/03 10:14:21;;;;;;;3.83;3.40;;;;;;;0.79;100.00;100929.28;6061079;23;20033;-73
2023/12/03 10:16:48;;;;;;;4.45;4.15;;;;;;;0.43;100.00;100844.38;6060178;23;20091;-73
2023/12/03 10:19:26;;;;;;;3.97;3.78;;;;;;;0.50;100.00;100846.03;6041324;23;20036;-73
2023/12/03 10:21:57;;;;;;;4.63;4.28;;;;;;;-0.12;100.00;100699.44;6037682;23;20027;-71
2023/12/03 10:24:24;;;;;;;5.30;4.95;;;;;;;0.89;100.00;100872.38;6068347;23;20022;-73
2023/12/03 10:26:53;;;;;;;4.95;4.65;;;;;;;0.92;100.00;100886.13;6067593;23;20065;-73
2023/12/03 10:29:19;;;;;;;5.60;5.20;;;;;;;0.65;100.00;100830.41;6066926;23;20024;-73
2023/12/03 10:31:50;;;;;;;4.35;3.95;;;;;;;0.61;100.00;100823.56;6058335;23;20032;-72
2023/12/03 10:34:18;;;;;;;3.30;3.10;;;;;;;0.89;100.00;100880.97;6066046;23;20061;-74
2023/12/03 10:36:44;;;;;;;4.43;4.20;;;;;;;0.82;100.00;100839.72;6056844;23;20021;-73
2023/12/03 10:39:17;;;;;;;3.88;3.67;;;;;;;0.61;100.00;100818.38;6040136;23;20014;-74
2023/12/03 10:41:51;;;;;;;6.07;5.57;;;;;;;0.49;100.00;100778.03;6029549;23;20626;-74
2023/12/03 10:44:23;;;;;;;4.13;3.90;;;;;;;0.94;100.00;100853.38;6033879;23;20088;-74
2023/12/03 10:46:50;;;;;;;5.38;4.97;;;;;;;0.59;100.00;100799.47;6060808;23;20034;-75
2023/12/03 10:49:23;;;;;;;3.67;3.47;;;;;;;0.16;100.00;100696.59;6055787;23;20033;-74
2023/12/03 10:51:52;;;;;;;;;;;;;;;1.20;100.00;100875.50;6058155;23;20041;-74
2023/12/03 10:54:18;;;;;;;3.83;3.63;;;;;;;0.72;100.00;100749.41;6052926;23;19922;-74
2023/12/03 10:56:49;;;;;;;3.75;3.53;;;;;;;0.89;100.00;100740.63;6028713;23;20038;-74
2023/12/03 10:59:21;;;;;;;7.50;5.35;;;;;;;-0.16;100.00;100545.59;6066490;23;20171;-74
2023/12/03 11:01:53;;;;;;;8.65;4.55;;;;;;;1.36;100.00;100737.44;6061725;23;20658;-74
2023/12/03 11:04:55;;;;;;;3.78;3.58;;;;;;;0.91;100.00;100661.34;6076246;23;20812;-75
2023/12/03 11:07:22;;;;;;;4.68;4.22;;;;;;;0.85;100.00;100638.19;6062842;23;20042;-74
2023/12/03 11:09:49;;;;;;;5.35;4.18;;;;;;;1.51;100.00;100732.91;6064703;23;20026;-74
2023/12/03 11:12:19;;;;;;;4.18;3.88;;;;;;;1.14;99.69;100641.22;6060318;23;20033;-74
2023/12/03 11:14:46;;;;;;;3.88;3.58;;;;;;;0.00;98.37;100417.28;6061900;23;20022;-74
2023/12/03 11:17:15;;;;;;;3.05;2.95;;;;;;;1.48;98.67;100653.63;6068084;23;20029;-74
2023/12/03 11:19:48;;;;;;;4.47;4.07;;;;;;;1.09;98.28;100568.06;6052987;23;20029;-74